sensor_id;sensor_type;location;lat;lon;timestamp;P1;P2;P0
29460;PMS7003;16428;47.836;35.106;2023-02-01T02:21:10;53.67;41.67;25.00
29460;PMS7003;16428;47.836;35.106;2023-02-01T02:29:49;44.75;41.75;28.50
29460;PMS7003;16428;47.836;35.106;2023-02-01T02:38:05;40.75;37.50;26.75
29460;PMS7003;16428;47.836;35.106;2023-02-01T02:41:01;40.50;37.50;26.00
29460;PMS7003;16428;47.836;35.106;2023-02-01T02:44:03;35.00;31.50;22.75
29460;PMS7003;16428;47.836;35.106;2023-02-01T02:47:00;41.25;37.00;25.00
29460;PMS7003;16428;47.836;35.106;2023-02-01T02:52:42;35.00;29.00;19.25
29460;PMS7003;16428;47.836;35.106;2023-02-01T02:55:34;37.75;32.75;25.25
29460;PMS7003;16428;47.836;35.106;2023-02-01T02:58:05;42.75;34.25;25.50
29460;PMS7003;16428;47.836;35.106;2023-02-01T03:00:54;43.50;39.25;25.75
29460;PMS7003;16428;47.836;35.106;2023-02-01T03:03:42;46.00;35.75;25.00
29460;PMS7003;16428;47.836;35.106;2023-02-01T03:06:31;41.25;38.75;26.00
29460;PMS7003;16428;47.836;35.106;2023-02-01T03:09:01;38.00;38.00;26.00
29460;PMS7003;16428;47.836;35.106;2023-02-01T03:11:35;43.50;41.75;26.75
29460;PMS7003;16428;47.836;35.106;2023-02-01T03:14:21;42.25;37.75;25.50
29460;PMS7003;16428;47.836;35.106;2023-02-01T03:16:58;37.75;37.75;25.50
29460;PMS7003;16428;47.836;35.106;2023-02-01T03:19:37;41.50;34.50;25.50
29460;PMS7003;16428;47.836;35.106;2023-02-01T03:22:11;45.25;36.50;24.75
29460;PMS7003;16428;47.836;35.106;2023-02-01T03:24:44;50.33;36.00;26.67
29460;PMS7003;16428;47.836;35.106;2023-02-01T03:30:32;54.00;39.25;29.75
29460;PMS7003;16428;47.836;35.106;2023-02-01T03:33:05;74.00;59.00;38.67
29460;PMS7003;16428;47.836;35.106;2023-02-01T03:35:45;97.33;72.67;44.33
29460;PMS7003;16428;47.836;35.106;2023-02-01T03:38:23;87.00;67.33;43.33
29460;PMS7003;16428;47.836;35.106;2023-02-01T03:43:46;76.33;59.67;41.67
29460;PMS7003;16428;47.836;35.106;2023-02-01T03:46:25;82.67;60.00;38.67
29460;PMS7003;16428;47.836;35.106;2023-02-01T03:49:01;62.00;51.00;37.00
29460;PMS7003;16428;47.836;35.106;2023-02-01T03:51:34;62.00;48.33;33.67
29460;PMS7003;16428;47.836;35.106;2023-02-01T03:54:08;63.67;49.67;34.00
29460;PMS7003;16428;47.836;35.106;2023-02-01T03:56:42;67.67;50.00;32.67
29460;PMS7003;16428;47.836;35.106;2023-02-01T03:59:13;47.67;38.67;19.00
29460;PMS7003;16428;47.836;35.106;2023-02-01T04:01:42;58.33;48.33;34.00
29460;PMS7003;16428;47.836;35.106;2023-02-01T04:04:10;61.00;47.00;31.67
29460;PMS7003;16428;47.836;35.106;2023-02-01T04:06:48;45.67;38.33;24.33
29460;PMS7003;16428;47.836;35.106;2023-02-01T04:09:17;62.00;47.67;31.33
29460;PMS7003;16428;47.836;35.106;2023-02-01T04:11:46;65.00;48.67;33.67
29460;PMS7003;16428;47.836;35.106;2023-02-01T04:14:16;54.33;44.33;30.67
29460;PMS7003;16428;47.836;35.106;2023-02-01T04:16:44;58.33;45.00;31.00
29460;PMS7003;16428;47.836;35.106;2023-02-01T04:19:14;58.00;44.33;29.00
29460;PMS7003;16428;47.836;35.106;2023-02-01T04:21:42;58.67;46.67;30.33
29460;PMS7003;16428;47.836;35.106;2023-02-01T04:24:11;60.67;48.00;31.33
29460;PMS7003;16428;47.836;35.106;2023-02-01T04:26:39;65.00;52.33;33.33
29460;PMS7003;16428;47.836;35.106;2023-02-01T04:29:08;56.00;45.33;30.00
29460;PMS7003;16428;47.836;35.106;2023-02-01T04:31:38;62.67;50.00;34.00
29460;PMS7003;16428;47.836;35.106;2023-02-01T04:34:06;65.33;51.67;34.67
29460;PMS7003;16428;47.836;35.106;2023-02-01T04:36:36;74.00;56.67;37.00
29460;PMS7003;16428;47.836;35.106;2023-02-01T04:39:04;63.33;47.33;31.67
29460;PMS7003;16428;47.836;35.106;2023-02-01T04:41:33;73.00;51.00;34.00
29460;PMS7003;16428;47.836;35.106;2023-02-01T04:44:01;65.67;54.00;34.67
29460;PMS7003;16428;47.836;35.106;2023-02-01T04:46:30;60.00;49.67;33.33
29460;PMS7003;16428;47.836;35.106;2023-02-01T04:48:58;61.67;45.33;31.67
29460;PMS7003;16428;47.836;35.106;2023-02-01T04:51:26;51.67;46.00;31.67
29460;PMS7003;16428;47.836;35.106;2023-02-01T04:53:55;61.33;49.67;34.33
29460;PMS7003;16428;47.836;35.106;2023-02-01T04:56:25;46.00;40.33;32.33
29460;PMS7003;16428;47.836;35.106;2023-02-01T04:58:53;66.67;54.00;34.67
29460;PMS7003;16428;47.836;35.106;2023-02-01T05:01:23;64.00;49.67;34.00
29460;PMS7003;16428;47.836;35.106;2023-02-01T05:03:57;64.33;51.67;35.33
29460;PMS7003;16428;47.836;35.106;2023-02-01T05:06:25;59.33;50.33;35.00
29460;PMS7003;16428;47.836;35.106;2023-02-01T05:08:53;52.67;42.00;25.67
29460;PMS7003;16428;47.836;35.106;2023-02-01T05:11:21;68.33;53.33;34.00
29460;PMS7003;16428;47.836;35.106;2023-02-01T05:14:08;71.67;54.00;35.00
29460;PMS7003;16428;47.836;35.106;2023-02-01T05:16:36;59.00;50.00;32.33
29460;PMS7003;16428;47.836;35.106;2023-02-01T05:19:04;61.67;49.67;31.00
29460;PMS7003;16428;47.836;35.106;2023-02-01T05:21:32;67.00;51.33;35.33
29460;PMS7003;16428;47.836;35.106;2023-02-01T05:24:01;58.67;45.00;32.00
29460;PMS7003;16428;47.836;35.106;2023-02-01T05:26:40;64.67;46.00;34.00
29460;PMS7003;16428;47.836;35.106;2023-02-01T05:29:10;60.67;50.00;35.67
29460;PMS7003;16428;47.836;35.106;2023-02-01T05:31:39;66.67;53.00;37.00
29460;PMS7003;16428;47.836;35.106;2023-02-01T05:34:07;72.33;56.67;38.33
29460;PMS7003;16428;47.836;35.106;2023-02-01T05:36:35;71.67;56.67;38.67
29460;PMS7003;16428;47.836;35.106;2023-02-01T05:39:03;81.00;62.33;44.33
29460;PMS7003;16428;47.836;35.106;2023-02-01T05:41:34;80.67;60.67;41.00
29460;PMS7003;16428;47.836;35.106;2023-02-01T05:44:04;79.00;61.00;38.00
29460;PMS7003;16428;47.836;35.106;2023-02-01T05:46:35;80.00;63.00;42.67
29460;PMS7003;16428;47.836;35.106;2023-02-01T05:49:04;76.00;60.00;37.00
29460;PMS7003;16428;47.836;35.106;2023-02-01T05:51:35;65.67;50.00;29.00
29460;PMS7003;16428;47.836;35.106;2023-02-01T05:54:05;84.67;67.00;42.67
29460;PMS7003;16428;47.836;35.106;2023-02-01T05:56:37;80.00;62.00;42.00
29460;PMS7003;16428;47.836;35.106;2023-02-01T05:59:08;71.33;56.67;39.33
29460;PMS7003;16428;47.836;35.106;2023-02-01T06:02:01;80.33;58.00;38.33
29460;PMS7003;16428;47.836;35.106;2023-02-01T06:04:43;70.67;54.67;34.67
29460;PMS7003;16428;47.836;35.106;2023-02-01T06:07:21;71.67;55.33;38.00
29460;PMS7003;16428;47.836;35.106;2023-02-01T06:10:04;74.33;54.67;37.33
29460;PMS7003;16428;47.836;35.106;2023-02-01T06:13:03;80.67;58.33;36.00
29460;PMS7003;16428;47.836;35.106;2023-02-01T06:15:49;68.67;55.33;38.33
29460;PMS7003;16428;47.836;35.106;2023-02-01T06:23:12;71.67;52.00;36.67
29460;PMS7003;16428;47.836;35.106;2023-02-01T06:25:43;74.33;56.67;36.33
29460;PMS7003;16428;47.836;35.106;2023-02-01T06:28:13;75.00;58.00;38.33
29460;PMS7003;16428;47.836;35.106;2023-02-01T06:30:41;67.67;54.00;37.00
29460;PMS7003;16428;47.836;35.106;2023-02-01T06:33:13;58.33;43.00;25.33
29460;PMS7003;16428;47.836;35.106;2023-02-01T06:35:47;60.00;50.33;34.00
29460;PMS7003;16428;47.836;35.106;2023-02-01T06:38:33;57.67;48.67;34.67
29460;PMS7003;16428;47.836;35.106;2023-02-01T10:36:21;54.00;37.00;26.75
29460;PMS7003;16428;47.836;35.106;2023-02-01T10:38:58;62.25;50.00;34.00
29460;PMS7003;16428;47.836;35.106;2023-02-01T10:41:31;64.75;47.50;33.00
29460;PMS7003;16428;47.836;35.106;2023-02-01T10:44:09;64.25;50.25;34.75
29460;PMS7003;16428;47.836;35.106;2023-02-01T10:46:42;60.25;48.50;33.00
29460;PMS7003;16428;47.836;35.106;2023-02-01T10:49:13;52.50;42.25;29.25
29460;PMS7003;16428;47.836;35.106;2023-02-01T10:52:10;55.00;45.25;30.75
29460;PMS7003;16428;47.836;35.106;2023-02-01T10:54:45;60.00;47.50;30.25
29460;PMS7003;16428;47.836;35.106;2023-02-01T10:57:21;55.50;40.50;28.00
29460;PMS7003;16428;47.836;35.106;2023-02-01T10:59:59;41.50;38.50;26.75
29460;PMS7003;16428;47.836;35.106;2023-02-01T11:02:33;54.75;39.25;26.00
29460;PMS7003;16428;47.836;35.106;2023-02-01T11:05:09;52.25;42.75;26.50
29460;PMS7003;16428;47.836;35.106;2023-02-01T11:07:49;38.25;35.75;24.25
29460;PMS7003;16428;47.836;35.106;2023-02-01T11:10:34;38.25;37.25;24.50
29460;PMS7003;16428;47.836;35.106;2023-02-01T11:13:17;49.00;40.50;24.25
29460;PMS7003;16428;47.836;35.106;2023-02-01T11:15:54;42.75;35.00;23.50
29460;PMS7003;16428;47.836;35.106;2023-02-01T11:18:31;42.50;34.75;23.75
29460;PMS7003;16428;47.836;35.106;2023-02-01T11:21:04;43.00;33.00;23.50
29460;PMS7003;16428;47.836;35.106;2023-02-01T11:23:39;40.25;36.00;26.50
29460;PMS7003;16428;47.836;35.106;2023-02-01T11:26:11;33.00;28.00;19.00
29460;PMS7003;16428;47.836;35.106;2023-02-01T11:28:54;34.75;26.00;22.25
29460;PMS7003;16428;47.836;35.106;2023-02-01T11:31:27;30.75;26.50;19.50
29460;PMS7003;16428;47.836;35.106;2023-02-01T11:34:05;37.00;29.75;22.75
29460;PMS7003;16428;47.836;35.106;2023-02-01T11:36:41;30.00;26.50;18.75
29460;PMS7003;16428;47.836;35.106;2023-02-01T11:39:29;21.50;18.75;14.00
29460;PMS7003;16428;47.836;35.106;2023-02-01T11:42:13;20.50;16.25;12.25
29460;PMS7003;16428;47.836;35.106;2023-02-01T11:44:44;39.50;36.75;26.50
29460;PMS7003;16428;47.836;35.106;2023-02-01T11:50:16;32.75;32.75;26.00
29460;PMS7003;16428;47.836;35.106;2023-02-01T11:53:38;38.75;30.50;22.25
29460;PMS7003;16428;47.836;35.106;2023-02-01T11:56:13;45.25;41.00;29.00
29460;PMS7003;16428;47.836;35.106;2023-02-01T12:16:25;30.75;22.25;18.50
29460;PMS7003;16428;47.836;35.106;2023-02-01T12:20:02;25.00;25.00;20.25
29460;PMS7003;16428;47.836;35.106;2023-02-01T12:22:35;35.00;30.75;19.50
29460;PMS7003;16428;47.836;35.106;2023-02-01T12:47:30;35.50;30.25;22.75
29460;PMS7003;16428;47.836;35.106;2023-02-01T12:52:50;32.00;28.25;19.50
29460;PMS7003;16428;47.836;35.106;2023-02-01T12:58:14;36.25;31.50;25.75
29460;PMS7003;16428;47.836;35.106;2023-02-01T13:00:49;27.25;25.50;21.00
29460;PMS7003;16428;47.836;35.106;2023-02-01T13:03:50;41.75;31.25;22.50
29460;PMS7003;16428;47.836;35.106;2023-02-01T13:06:26;43.25;35.50;26.25
29460;PMS7003;16428;47.836;35.106;2023-02-01T13:12:04;38.00;32.50;24.25
29460;PMS7003;16428;47.836;35.106;2023-02-01T13:14:54;28.25;24.50;19.00
29460;PMS7003;16428;47.836;35.106;2023-02-01T13:17:32;31.25;27.25;22.50
29460;PMS7003;16428;47.836;35.106;2023-02-01T13:20:21;26.50;25.50;20.25
29460;PMS7003;16428;47.836;35.106;2023-02-01T13:26:14;24.75;21.25;15.00
29460;PMS7003;16428;47.836;35.106;2023-02-01T13:28:58;27.00;24.75;19.00
29460;PMS7003;16428;47.836;35.106;2023-02-01T13:35:22;26.00;23.75;18.00
29460;PMS7003;16428;47.836;35.106;2023-02-01T13:44:28;47.00;42.00;29.33
29460;PMS7003;16428;47.836;35.106;2023-02-01T13:50:24;55.00;43.00;30.00
29460;PMS7003;16428;47.836;35.106;2023-02-01T13:53:24;47.50;37.75;26.25
29460;PMS7003;16428;47.836;35.106;2023-02-01T14:00:03;38.50;33.50;26.25
29460;PMS7003;16428;47.836;35.106;2023-02-01T14:13:44;44.50;36.75;23.50
29460;PMS7003;16428;47.836;35.106;2023-02-01T14:16:24;36.25;32.75;23.25
29460;PMS7003;16428;47.836;35.106;2023-02-01T14:18:59;39.00;35.67;24.33
29460;PMS7003;16428;47.836;35.106;2023-02-01T14:21:47;35.00;31.00;20.00
29460;PMS7003;16428;47.836;35.106;2023-02-01T14:24:34;43.00;38.33;27.00
29460;PMS7003;16428;47.836;35.106;2023-02-01T14:27:17;43.00;37.67;25.67
29460;PMS7003;16428;47.836;35.106;2023-02-01T14:29:59;31.75;29.75;20.75
29460;PMS7003;16428;47.836;35.106;2023-02-01T14:32:50;43.33;37.00;26.33
29460;PMS7003;16428;47.836;35.106;2023-02-01T14:35:33;40.00;29.67;22.00
29460;PMS7003;16428;47.836;35.106;2023-02-01T14:38:31;48.33;39.67;28.67
29460;PMS7003;16428;47.836;35.106;2023-02-01T14:41:32;61.00;42.00;28.67
29460;PMS7003;16428;47.836;35.106;2023-02-01T14:44:24;41.33;33.67;25.33
29460;PMS7003;16428;47.836;35.106;2023-02-01T14:47:28;42.00;38.33;26.00
29460;PMS7003;16428;47.836;35.106;2023-02-01T15:01:52;44.33;36.67;28.67
29460;PMS7003;16428;47.836;35.106;2023-02-01T15:04:43;44.33;37.67;26.67
29460;PMS7003;16428;47.836;35.106;2023-02-01T15:07:28;51.33;41.67;28.67
29460;PMS7003;16428;47.836;35.106;2023-02-01T15:10:01;45.00;34.33;26.00
29460;PMS7003;16428;47.836;35.106;2023-02-01T15:12:35;54.00;42.67;30.67
29460;PMS7003;16428;47.836;35.106;2023-02-01T15:15:17;58.33;44.00;29.00
29460;PMS7003;16428;47.836;35.106;2023-02-01T15:18:01;51.00;39.00;27.33
29460;PMS7003;16428;47.836;35.106;2023-02-01T15:20:33;41.33;38.00;26.00
29460;PMS7003;16428;47.836;35.106;2023-02-01T15:23:18;56.67;46.00;29.67
29460;PMS7003;16428;47.836;35.106;2023-02-01T15:25:49;46.00;38.33;24.33
29460;PMS7003;16428;47.836;35.106;2023-02-01T15:28:20;52.33;42.33;30.33
29460;PMS7003;16428;47.836;35.106;2023-02-01T15:30:54;51.33;41.00;29.00
29460;PMS7003;16428;47.836;35.106;2023-02-01T15:33:29;60.00;43.33;27.33
29460;PMS7003;16428;47.836;35.106;2023-02-01T15:38:42;60.67;45.67;31.00
29460;PMS7003;16428;47.836;35.106;2023-02-01T15:41:28;58.67;44.00;28.67
29460;PMS7003;16428;47.836;35.106;2023-02-01T15:44:14;46.33;40.33;28.33
29460;PMS7003;16428;47.836;35.106;2023-02-01T15:47:18;54.67;43.67;30.33
29460;PMS7003;16428;47.836;35.106;2023-02-01T15:49:57;46.00;41.33;29.00
29460;PMS7003;16428;47.836;35.106;2023-02-01T15:58:18;50.00;40.25;28.00
29460;PMS7003;16428;47.836;35.106;2023-02-01T16:00:56;44.75;33.50;24.75
29460;PMS7003;16428;47.836;35.106;2023-02-01T16:03:41;42.00;36.75;26.25
29460;PMS7003;16428;47.836;35.106;2023-02-01T16:09:11;47.50;41.50;26.50
29460;PMS7003;16428;47.836;35.106;2023-02-01T16:11:53;45.25;39.75;26.25
29460;PMS7003;16428;47.836;35.106;2023-02-01T16:14:25;30.75;23.00;13.25
29460;PMS7003;16428;47.836;35.106;2023-02-01T16:17:00;44.00;38.00;27.00
29460;PMS7003;16428;47.836;35.106;2023-02-01T16:19:31;52.00;42.00;28.75
29460;PMS7003;16428;47.836;35.106;2023-02-01T16:22:17;42.50;35.25;21.00
29460;PMS7003;16428;47.836;35.106;2023-02-01T16:24:47;42.75;37.00;22.75
29460;PMS7003;16428;47.836;35.106;2023-02-01T16:27:21;50.50;42.75;29.00
29460;PMS7003;16428;47.836;35.106;2023-02-01T16:29:55;40.00;27.25;14.25
29460;PMS7003;16428;47.836;35.106;2023-02-01T16:32:25;55.25;42.75;26.00
29460;PMS7003;16428;47.836;35.106;2023-02-01T16:35:00;48.25;41.00;28.25
29460;PMS7003;16428;47.836;35.106;2023-02-01T16:37:34;43.00;39.50;26.00
29460;PMS7003;16428;47.836;35.106;2023-02-01T16:40:26;52.75;43.25;29.00
29460;PMS7003;16428;47.836;35.106;2023-02-01T16:42:56;50.50;36.00;23.25
29460;PMS7003;16428;47.836;35.106;2023-02-01T16:45:34;42.00;34.50;25.75
29460;PMS7003;16428;47.836;35.106;2023-02-01T16:48:06;48.75;41.25;29.25
29460;PMS7003;16428;47.836;35.106;2023-02-01T16:50:38;44.75;39.25;29.00
29460;PMS7003;16428;47.836;35.106;2023-02-01T16:53:07;52.25;37.50;26.00
29460;PMS7003;16428;47.836;35.106;2023-02-01T16:55:48;52.50;42.75;27.75
29460;PMS7003;16428;47.836;35.106;2023-02-01T16:58:18;55.50;39.25;28.00
29460;PMS7003;16428;47.836;35.106;2023-02-01T17:00:53;42.00;37.50;29.00
29460;PMS7003;16428;47.836;35.106;2023-02-01T17:03:24;50.75;41.25;26.50
29460;PMS7003;16428;47.836;35.106;2023-02-01T17:06:17;56.25;41.50;28.25
29460;PMS7003;16428;47.836;35.106;2023-02-01T17:08:53;39.75;33.75;24.50
29460;PMS7003;16428;47.836;35.106;2023-02-01T17:11:27;43.50;33.75;24.00
29460;PMS7003;16428;47.836;35.106;2023-02-01T17:14:32;37.75;28.00;17.00
29460;PMS7003;16428;47.836;35.106;2023-02-01T17:17:10;41.75;34.00;25.50
29460;PMS7003;16428;47.836;35.106;2023-02-01T17:19:44;36.25;30.50;24.25
29460;PMS7003;16428;47.836;35.106;2023-02-01T17:22:17;48.75;38.75;26.00
29460;PMS7003;16428;47.836;35.106;2023-02-01T17:24:56;48.00;33.50;25.25
29460;PMS7003;16428;47.836;35.106;2023-02-01T17:27:27;49.25;40.75;28.75
29460;PMS7003;16428;47.836;35.106;2023-02-01T17:30:01;48.75;41.00;26.75
29460;PMS7003;16428;47.836;35.106;2023-02-01T17:33:19;34.00;31.75;24.00
29460;PMS7003;16428;47.836;35.106;2023-02-01T17:36:03;65.00;44.00;30.00
29460;PMS7003;16428;47.836;35.106;2023-02-01T17:38:39;55.00;43.67;30.67
29460;PMS7003;16428;47.836;35.106;2023-02-01T17:41:12;45.33;42.00;26.33
29460;PMS7003;16428;47.836;35.106;2023-02-01T17:43:43;60.33;42.33;28.67
29460;PMS7003;16428;47.836;35.106;2023-02-01T17:46:13;40.50;33.00;24.25
29460;PMS7003;16428;47.836;35.106;2023-02-01T17:48:44;48.00;36.00;24.00
29460;PMS7003;16428;47.836;35.106;2023-02-01T17:51:16;64.00;47.00;30.00
29460;PMS7003;16428;47.836;35.106;2023-02-01T17:53:55;49.33;40.33;29.33
29460;PMS7003;16428;47.836;35.106;2023-02-01T17:56:35;59.00;43.67;29.67
29460;PMS7003;16428;47.836;35.106;2023-02-01T17:59:05;63.33;48.67;32.00
29460;PMS7003;16428;47.836;35.106;2023-02-01T18:01:34;72.67;50.67;34.67
29460;PMS7003;16428;47.836;35.106;2023-02-01T18:04:04;64.00;52.67;35.00
29460;PMS7003;16428;47.836;35.106;2023-02-01T18:06:38;60.00;46.00;29.33
29460;PMS7003;16428;47.836;35.106;2023-02-01T18:09:07;65.00;50.67;31.33
29460;PMS7003;16428;47.836;35.106;2023-02-01T18:11:38;63.33;49.00;31.00
29460;PMS7003;16428;47.836;35.106;2023-02-01T18:14:08;59.33;45.67;30.33
29460;PMS7003;16428;47.836;35.106;2023-02-01T18:16:44;53.33;41.33;29.00
29460;PMS7003;16428;47.836;35.106;2023-02-01T18:19:17;70.00;53.67;35.00
29460;PMS7003;16428;47.836;35.106;2023-02-01T23:34:13;41.00;36.50;23.00
29460;PMS7003;16428;47.836;35.106;2023-02-01T23:37:11;39.50;32.75;19.75
29460;PMS7003;16428;47.836;35.106;2023-02-01T23:40:10;52.25;37.00;25.75
29460;PMS7003;16428;47.836;35.106;2023-02-01T23:42:55;43.25;38.25;27.50
29460;PMS7003;16428;47.836;35.106;2023-02-01T23:46:02;42.75;37.50;24.75
29460;PMS7003;16428;47.836;35.106;2023-02-01T23:48:52;39.00;29.50;20.25
29460;PMS7003;16428;47.836;35.106;2023-02-01T23:51:29;45.75;36.25;26.25
29460;PMS7003;16428;47.836;35.106;2023-02-01T23:54:45;40.00;29.00;21.25
29460;PMS7003;16428;47.836;35.106;2023-02-01T23:57:22;42.00;37.75;23.00
